Wheatfield, New York
Current Conditions -  °F | °C
As of 4:53 AM on Saturday 20 Dec 2014 (Local Time) from KIAG Reporting Station
Broken Clouds Broken Clouds  
Wind Chill: 21°   Ceiling: 1800
Heat Index: 26°   Visibility: 10mi
Dew Point: 21°   Wind: 5mph
Humidity: 81%   Direction: 270°W
Pressure: 30.25"   Gusts: NA
Location:  43.1007°N, 78.9485°W
Report Text: KIAG 200953Z AUTO 27004KT 10SM BKN018 M03/M06 A3025 RMK AO2 SLP261 T10331061
Loading
Personal Weather Stations






























Interactive Weather Map New forecast layout! Learn more

10-Day Weather Forecast

Advertisements
Track Severe Weather on mobile